createdAt,value
2018-06-09T00:00:01.563Z,10.9
2018-06-09T00:05:01.564Z,9.9
2018-06-09T00:10:01.569Z,9.6
2018-06-09T00:15:01.543Z,8.9
2018-06-09T00:20:01.823Z,8.1
2018-06-09T00:25:01.626Z,7.5
2018-06-09T00:30:01.721Z,6.9
2018-06-09T00:35:01.556Z,6.6
2018-06-09T00:40:02.688Z,6.6
2018-06-09T00:45:06.662Z,6.5
2018-06-09T00:50:01.638Z,6.7
2018-06-09T00:55:01.568Z,6.8
2018-06-09T01:00:06.747Z,6.4
2018-06-09T01:05:01.570Z,6.2
2018-06-09T01:10:01.571Z,6.3
2018-06-09T01:15:01.542Z,6.0
2018-06-09T01:20:01.757Z,5.7
2018-06-09T01:25:01.526Z,5.8
2018-06-09T01:30:01.657Z,5.8
2018-06-09T01:35:01.660Z,5.5
2018-06-09T01:40:01.592Z,5.5
2018-06-09T01:45:01.597Z,5.4
2018-06-09T01:50:01.724Z,5.5
2018-06-09T01:55:01.503Z,5.8
2018-06-09T02:00:01.601Z,6.1
2018-06-09T02:05:01.600Z,6.2
2018-06-09T02:15:01.656Z,6.2
2018-06-09T02:25:01.613Z,6.0
2018-06-09T02:30:01.721Z,6.2
2018-06-09T02:35:06.536Z,6.6
2018-06-09T02:40:01.663Z,6.8
2018-06-09T02:45:01.543Z,7.0
2018-06-09T02:50:01.535Z,7.4
2018-06-09T02:55:01.526Z,7.7
2018-06-09T03:00:01.749Z,7.8
2018-06-09T03:05:01.532Z,7.8
2018-06-09T03:10:01.534Z,7.6
2018-06-09T03:15:01.524Z,7.0
2018-06-09T03:20:01.538Z,6.4
2018-06-09T03:25:01.497Z,6.4
2018-06-09T03:30:01.643Z,6.0
2018-06-09T03:40:01.533Z,5.4
2018-06-09T03:56:01.654Z,5.0
2018-06-09T04:01:02.582Z,5.0
2018-06-09T04:11:01.690Z,4.8
2018-06-09T04:17:01.664Z,4.8
2018-06-09T04:22:01.521Z,4.8
2018-06-09T04:27:01.588Z,5.0
2018-06-09T04:32:01.523Z,5.0
2018-06-09T04:37:01.659Z,5.0
2018-06-09T04:42:01.598Z,4.8
2018-06-09T04:52:01.667Z,5.1
2018-06-09T04:58:01.646Z,5.2
2018-06-09T05:08:01.589Z,5.5
2018-06-09T05:13:01.766Z,5.5
2018-06-09T05:23:01.712Z,5.7
2018-06-09T05:33:01.662Z,5.6
2018-06-09T05:43:01.613Z,5.9
2018-06-09T05:48:01.645Z,5.8
2018-06-09T05:53:06.563Z,5.6
2018-06-09T05:58:01.684Z,5.8
2018-06-09T06:03:01.676Z,5.4
2018-06-09T06:08:01.593Z,5.4
2018-06-09T06:13:01.532Z,5.0
2018-06-09T06:18:01.691Z,5.2
2018-06-09T06:23:01.549Z,5.0
2018-06-09T06:28:01.662Z,5.0
2018-06-09T06:33:01.581Z,4.9
2018-06-09T06:38:06.729Z,4.6
2018-06-09T06:43:01.568Z,4.0
2018-06-09T06:48:01.624Z,3.8
2018-06-09T06:58:01.648Z,3.6
2018-06-09T07:03:01.541Z,3.6
2018-06-09T07:08:02.058Z,3.7
2018-06-09T07:13:01.542Z,3.8
2018-06-09T07:18:01.576Z,4.2
2018-06-09T07:23:01.591Z,4.0
2018-06-09T07:28:01.715Z,4.3
2018-06-09T07:33:01.502Z,4.4
2018-06-09T07:38:01.626Z,4.4
2018-06-09T07:43:01.498Z,4.0
2018-06-09T07:48:01.594Z,3.9
2018-06-09T07:53:01.526Z,3.6
2018-06-09T07:58:01.749Z,3.6
2018-06-09T08:03:01.575Z,3.6
2018-06-09T08:08:01.665Z,3.7
2018-06-09T08:14:01.865Z,4.0
2018-06-09T08:19:01.620Z,4.2
2018-06-09T08:24:01.527Z,4.3
2018-06-09T08:29:01.745Z,4.4
2018-06-09T08:34:01.542Z,4.8
2018-06-09T08:44:01.640Z,5.2
2018-06-09T08:49:01.582Z,5.4
2018-06-09T08:54:01.487Z,5.5
2018-06-09T09:04:01.750Z,5.3
2018-06-09T09:09:01.681Z,5.4
2018-06-09T09:14:01.536Z,5.6
2018-06-09T09:19:01.607Z,5.7
2018-06-09T09:24:01.535Z,5.5
2018-06-09T09:29:01.663Z,5.3
2018-06-09T09:34:01.601Z,5.2
2018-06-09T09:39:06.710Z,4.8
2018-06-09T09:44:01.582Z,4.3
2018-06-09T09:54:01.653Z,4.8
2018-06-09T09:59:01.691Z,4.9
2018-06-09T10:04:01.523Z,5.3
2018-06-09T10:09:03.934Z,5.8
2018-06-09T10:14:01.495Z,6.2
2018-06-09T10:19:01.642Z,6.3
2018-06-09T10:24:06.605Z,6.8
2018-06-09T10:29:02.048Z,7.5
2018-06-09T10:34:01.572Z,8.3
2018-06-09T10:40:01.582Z,8.7
2018-06-09T10:45:06.533Z,8.6
2018-06-09T10:50:01.682Z,8.6
2018-06-09T10:55:01.585Z,8.4
2018-06-09T11:00:02.105Z,7.8
2018-06-09T11:05:01.554Z,7.6
2018-06-09T11:10:01.988Z,7.8
2018-06-09T11:15:06.532Z,7.5
2018-06-09T11:20:01.725Z,7.0
2018-06-09T11:25:01.544Z,6.9
2018-06-09T11:30:01.605Z,6.8
2018-06-09T11:40:06.876Z,7.3
2018-06-09T11:45:01.591Z,7.6
2018-06-09T11:50:01.698Z,8.1
2018-06-09T11:55:01.548Z,8.8
2018-06-09T12:00:01.655Z,10.8
2018-06-09T12:05:01.598Z,12.1
2018-06-09T12:10:01.595Z,14.7
2018-06-09T12:15:01.493Z,16.7
2018-06-09T12:20:01.690Z,18.5
2018-06-09T12:25:01.936Z,18.9
2018-06-09T12:30:01.717Z,19.7
2018-06-09T12:35:01.558Z,20.0
2018-06-09T12:40:01.627Z,20.4
2018-06-09T12:45:01.573Z,19.7
2018-06-09T12:50:01.585Z,19.1
2018-06-09T12:55:01.547Z,18.0
2018-06-09T13:00:01.689Z,15.8
2018-06-09T13:05:01.565Z,13.4
2018-06-09T13:10:01.555Z,14.5
2018-06-09T13:15:01.562Z,14.5
2018-06-09T13:20:01.662Z,13.4
2018-06-09T13:25:06.566Z,12.4
2018-06-09T13:30:06.546Z,12.0
2018-06-09T13:35:01.571Z,9.1
2018-06-09T13:40:01.612Z,7.0
2018-06-09T13:45:01.597Z,6.5
2018-06-09T13:50:01.779Z,7.2
2018-06-09T13:55:01.525Z,7.7
2018-06-09T14:00:01.589Z,8.4
2018-06-09T14:05:01.559Z,8.4
2018-06-09T14:10:01.632Z,8.2
2018-06-09T14:15:01.542Z,7.2
2018-06-09T14:20:01.734Z,6.4
2018-06-09T14:25:01.568Z,4.8
2018-06-09T14:30:01.628Z,3.9
2018-06-09T14:35:01.582Z,3.5
2018-06-09T14:40:01.688Z,3.4
2018-06-09T14:45:01.582Z,3.0
2018-06-09T14:50:01.727Z,3.5
2018-06-09T14:55:01.559Z,4.5
2018-06-09T15:00:01.693Z,4.5
2018-06-09T15:05:01.521Z,4.5
2018-06-09T15:15:06.661Z,4.2
2018-06-09T15:20:01.681Z,3.4
2018-06-09T15:30:01.789Z,3.0
2018-06-09T15:35:01.496Z,3.2
2018-06-09T15:40:01.682Z,3.2
2018-06-09T15:45:01.528Z,3.4
2018-06-09T15:50:01.622Z,3.8
2018-06-09T15:55:01.572Z,3.8
2018-06-09T16:00:01.822Z,4.0
2018-06-09T16:05:01.634Z,4.0
2018-06-09T16:10:01.760Z,4.4
2018-06-09T16:15:01.607Z,4.3
2018-06-09T16:20:01.878Z,7.0
2018-06-09T16:25:01.560Z,7.4
2018-06-09T16:30:01.628Z,8.0
2018-06-09T16:35:01.837Z,7.8
2018-06-09T16:40:01.780Z,8.0
2018-06-09T16:45:06.550Z,5.8
2018-06-09T16:50:01.651Z,5.3
2018-06-09T17:00:01.615Z,5.0
2018-06-09T17:05:01.555Z,5.2
2018-06-09T17:10:01.692Z,5.0
2018-06-09T17:15:01.557Z,5.4
2018-06-09T17:25:01.804Z,5.5
2018-06-09T17:30:01.589Z,5.6
2018-06-09T17:35:01.540Z,5.8
2018-06-09T17:40:06.635Z,5.9
2018-06-09T17:45:01.576Z,6.4
2018-06-09T17:50:01.689Z,6.8
2018-06-09T17:55:01.589Z,6.7
2018-06-09T18:00:01.810Z,6.7
2018-06-09T18:05:01.628Z,6.6
2018-06-09T18:10:01.981Z,6.6
2018-06-09T18:15:01.607Z,6.4
2018-06-09T18:20:01.815Z,6.8
2018-06-09T18:25:01.534Z,6.9
2018-06-09T18:30:01.736Z,7.3
2018-06-09T18:40:01.635Z,7.3
2018-06-09T18:45:01.524Z,7.0
2018-06-09T18:50:01.654Z,6.7
2018-06-09T18:55:01.528Z,6.1
2018-06-09T19:00:01.802Z,6.2
2018-06-09T19:05:01.507Z,6.0
2018-06-09T19:10:01.634Z,6.2
2018-06-09T19:15:01.525Z,6.6
2018-06-09T19:20:01.633Z,7.2
2018-06-09T19:30:01.667Z,7.9
2018-06-09T19:35:01.542Z,8.4
2018-06-09T19:40:01.662Z,9.3
2018-06-09T19:45:01.592Z,9.8
2018-06-09T19:50:02.078Z,10.5
2018-06-09T20:00:01.605Z,10.6
2018-06-09T20:05:01.526Z,10.4
2018-06-09T20:10:01.687Z,10.4
2018-06-09T20:15:01.694Z,10.6
2018-06-09T20:20:01.676Z,11.5
2018-06-09T20:25:01.541Z,12.1
2018-06-09T20:30:01.527Z,12.9
2018-06-09T20:35:01.733Z,13.2
2018-06-09T20:40:01.611Z,13.5
2018-06-09T20:45:01.671Z,13.3
2018-06-09T20:51:01.805Z,14.2
2018-06-09T20:56:01.655Z,14.7
2018-06-09T21:01:01.563Z,15.4
2018-06-09T21:06:02.323Z,15.4
2018-06-09T21:11:01.595Z,15.9
2018-06-09T21:16:01.729Z,15.8
2018-06-09T21:21:01.567Z,15.4
2018-06-09T21:26:01.604Z,16.2
2018-06-09T21:31:01.564Z,16.6
2018-06-09T21:37:01.569Z,17.2
2018-06-09T21:42:01.551Z,17.4
2018-06-09T21:47:01.590Z,18.4
2018-06-09T21:52:01.520Z,18.9
2018-06-09T21:57:06.675Z,19.6
2018-06-09T22:02:01.646Z,19.9
2018-06-09T22:07:01.632Z,20.4
2018-06-09T22:12:01.567Z,20.2
2018-06-09T22:17:01.758Z,19.8
2018-06-09T22:22:01.860Z,19.6
2018-06-09T22:27:01.711Z,18.8
2018-06-09T22:32:01.622Z,18.4
2018-06-09T22:37:01.686Z,17.9
2018-06-09T22:42:01.557Z,16.7
2018-06-09T22:47:01.688Z,16.6
2018-06-09T22:52:01.556Z,16.7
2018-06-09T22:57:01.556Z,16.3
2018-06-09T23:02:01.591Z,15.8
2018-06-09T23:07:01.697Z,16.0
2018-06-09T23:12:01.571Z,15.6
2018-06-09T23:17:01.639Z,15.4
2018-06-09T23:23:01.523Z,16.0
2018-06-09T23:28:01.625Z,16.8
2018-06-09T23:33:01.525Z,17.1
2018-06-09T23:38:01.562Z,17.5
2018-06-09T23:43:01.544Z,17.9
2018-06-09T23:48:01.611Z,17.6
2018-06-09T23:58:01.591Z,18.0
